Morgan, Texas
Current Conditions -  °F | °C
As of 12:30 PM on Monday 20 Oct 2014 (Local Time) from KCPT Reporting Station
Scattered Clouds Scattered Clouds  
Wind Chill: 75°   Ceiling: Unl
Heat Index: 75°   Visibility: 10mi
Dew Point: 64°   Wind: 6mph
Humidity: 69%   Direction: 210°SSW
Pressure: 30.11"   Gusts: NA
Location:  32.02°N, 97.61°W
Report Text: KCPT 201730Z AUTO 21005KT 10SM SCT026 24/18 A3011 RMK AO2
Loading
Personal Weather Stations






























Interactive Weather Map
Tropical Storm Tracking
New forecast layout! Learn more

10-Day Weather Forecast

Advertisements
Track Severe Weather on mobile